Finnish Line 2.0 — CFN6579 — position and weather

sailwx.info

Track history (hours):
 
Tides and Currents Weather Stations Pressure Air Temp Water Temp Dewpoint Dewpoint Depression Visibility Wind Speed Wind Dir Waves Ship Positions

Finnish Line 2.0

Last reported at 2017-Nov-27 07:14 UTC. Time now 2017-Dec-17 12:03 UTC.
Position N 27°50' W 080°27'.
Warning: this ship's position is 20 days out of date.

Length 10 m.

MMSI: 316026204.

Date/timePositionNaut miles runAvg speedWind from/ knotsBaromVisibWave heightAir tempDewpointWater temp
2017-Nov-27 07:14N 27°50' W 080°27'  
2017-Nov-19 19:07N 30°38' W 081°29'0 0.0
2017-Nov-19 18:55N 30°38' W 081°29'1 2.5
2017-Nov-19 18:30N 30°39' W 081°29'2 3.9
2017-Nov-19 18:00N 30°41' W 081°28'2 4.8
2017-Nov-19 17:30N 30°43' W 081°28'4 8.2
2017-Nov-19 17:00N 30°47' W 081°29'4 7.2
2017-Nov-19 16:30N 30°51' W 081°29'3 5.4
2017-Nov-19 16:00N 30°53' W 081°31'16 0.6
2017-Nov-18 14:11N 31°09' W 081°30'0 0.0
2017-Nov-18 13:59N 31°09' W 081°30'  
Track history (hours):
 
Tides and Currents Weather Stations Pressure Air Temp Water Temp Dewpoint Dewpoint Depression Visibility Wind Speed Wind Dir Waves Ship Positions

Finnish Line 2.0

Last reported at 2017-Nov-27 07:14 UTC. Time now 2017-Dec-17 12:03 UTC.
Position N 27°50' W 080°27'.
Warning: this ship's position is 20 days out of date.

Length 10 m.

MMSI: 316026204.

Date/timePositionNaut miles runAvg speedWind from/ knotsBaromVisibWave heightAir tempDewpointWater temp
2017-Nov-27 07:14N 27°50' W 080°27'  
2017-Nov-19 19:07N 30°38' W 081°29'0 0.0
2017-Nov-19 18:55N 30°38' W 081°29'1 2.5
2017-Nov-19 18:30N 30°39' W 081°29'2 3.9
2017-Nov-19 18:00N 30°41' W 081°28'2 4.8
2017-Nov-19 17:30N 30°43' W 081°28'4 8.2
2017-Nov-19 17:00N 30°47' W 081°29'4 7.2
2017-Nov-19 16:30N 30°51' W 081°29'3 5.4
2017-Nov-19 16:00N 30°53' W 081°31'16 0.6
2017-Nov-18 14:11N 31°09' W 081°30'0 0.0
2017-Nov-18 13:59N 31°09' W 081°30'  

Dump ship's entire track history